createdAt,value
2019-05-13T00:01:14.409Z,103367.31
2019-05-13T00:04:18.263Z,103368.46
2019-05-13T00:07:23.942Z,103365.78
2019-05-13T00:10:27.380Z,103363.92
2019-05-13T00:13:31.062Z,103363.42
2019-05-13T00:16:35.119Z,103361.52
2019-05-13T00:19:38.893Z,103364.14
2019-05-13T00:22:44.696Z,103364.90
2019-05-13T00:25:48.003Z,103364.34
2019-05-13T00:28:53.443Z,103367.47
2019-05-13T00:31:57.440Z,103375.61
2019-05-13T00:35:01.122Z,103381.38
2019-05-13T00:38:04.811Z,103377.80
2019-05-13T00:41:08.492Z,103383.47
2019-05-13T00:44:14.122Z,103385.13
2019-05-13T00:47:17.922Z,103388.19
2019-05-13T00:50:23.948Z,103384.12
2019-05-13T00:53:27.082Z,103386.64
2019-05-13T00:56:31.394Z,103393.84
2019-05-13T00:59:35.162Z,103393.57
2019-05-13T01:02:39.116Z,103396.41
2019-05-13T01:05:44.479Z,103400.47
2019-05-13T01:08:48.482Z,103396.09
2019-05-13T01:11:53.735Z,103396.69
2019-05-13T01:14:57.926Z,103402.27
2019-05-13T01:18:03.705Z,103399.91
2019-05-13T01:21:07.138Z,103400.53
2019-05-13T01:24:14.189Z,103397.88
2019-05-13T01:27:16.818Z,103396.81
2019-05-13T01:30:20.844Z,103391.62
2019-05-13T01:33:24.530Z,103395.76
2019-05-13T01:36:28.206Z,103387.48
2019-05-13T01:39:31.894Z,103393.94
2019-05-13T01:42:35.679Z,103393.42
2019-05-13T01:45:39.389Z,103390.31
2019-05-13T01:48:43.730Z,103389.74
2019-05-13T01:51:47.512Z,103384.31
2019-05-13T01:54:51.201Z,103386.45
2019-05-13T01:57:54.881Z,103380.62
2019-05-13T02:00:58.553Z,103380.97
2019-05-13T02:04:03.950Z,103393.39
2019-05-13T02:07:07.670Z,103394.02
2019-05-13T02:10:14.402Z,103390.52
2019-05-13T02:13:18.214Z,103390.95
2019-05-13T02:16:24.254Z,103385.72
2019-05-13T02:19:27.598Z,103390.95
2019-05-13T02:22:33.510Z,103398.10
2019-05-13T02:25:36.726Z,103403.36
2019-05-13T02:28:40.458Z,103402.87
2019-05-13T02:31:51.105Z,103404.12
2019-05-13T02:34:53.046Z,103403.43
2019-05-13T02:38:12.515Z,103406.06
2019-05-13T02:41:02.876Z,103402.94
2019-05-13T02:44:06.199Z,103406.06
2019-05-13T02:47:12.293Z,103411.32
2019-05-13T02:50:15.639Z,103409.58
2019-05-13T02:53:19.308Z,103420.52
2019-05-13T02:56:23.063Z,103413.49
2019-05-13T02:59:26.726Z,103416.03
2019-05-13T03:02:32.776Z,103423.55
2019-05-13T03:05:35.849Z,103426.64
2019-05-13T03:08:48.808Z,103426.73
2019-05-13T03:11:45.184Z,103421.53
2019-05-13T03:14:48.928Z,103429.09
2019-05-13T03:18:05.675Z,103424.46
2019-05-13T03:21:12.607Z,103430.83
2019-05-13T03:24:14.757Z,103431.92
2019-05-13T03:27:20.562Z,103431.72
2019-05-13T03:30:26.091Z,103439.72
2019-05-13T03:33:35.923Z,103433.45
2019-05-13T03:36:38.416Z,103429.39
2019-05-13T03:39:43.704Z,103441.19
2019-05-13T03:42:49.130Z,103441.81
2019-05-13T03:45:54.434Z,103437.92
2019-05-13T03:49:02.536Z,103444.13
2019-05-13T03:52:06.349Z,103453.09
2019-05-13T03:55:13.103Z,103450.50
2019-05-13T03:58:16.390Z,103449.15
2019-05-13T04:01:22.397Z,103449.55
2019-05-13T04:04:25.723Z,103453.85
2019-05-13T04:07:32.434Z,103451.37
2019-05-13T04:10:35.075Z,103449.91
2019-05-13T04:13:38.767Z,103454.56
2019-05-13T04:16:43.018Z,103452.33
2019-05-13T04:19:46.775Z,103457.78
2019-05-13T04:22:52.968Z,103456.83
2019-05-13T04:25:55.976Z,103459.67
2019-05-13T04:29:03.044Z,103456.52
2019-05-13T04:32:05.447Z,103470.73
2019-05-13T04:35:12.333Z,103464.33
2019-05-13T04:38:15.359Z,103465.88
2019-05-13T04:41:22.572Z,103473.42
2019-05-13T04:44:24.589Z,103478.18
2019-05-13T04:47:28.491Z,103471.91
2019-05-13T04:50:33.075Z,103469.55
2019-05-13T04:53:37.057Z,103474.08
2019-05-13T04:56:42.177Z,103474.51
2019-05-13T04:59:46.160Z,103475.39
2019-05-13T05:03:08.104Z,103478.81
2019-05-13T05:06:53.101Z,103475.69
2019-05-13T05:10:26.525Z,103480.37
2019-05-13T05:13:43.818Z,103481.63
2019-05-13T05:17:32.770Z,103480.72
2019-05-13T05:20:46.616Z,103481.84
2019-05-13T05:24:05.800Z,103477.34
2019-05-13T05:27:46.100Z,103486.00
2019-05-13T05:31:16.905Z,103483.67
2019-05-13T05:35:01.416Z,103480.79
2019-05-13T05:38:38.204Z,103478.06
2019-05-13T05:41:43.469Z,103482.23
2019-05-13T05:44:51.691Z,103482.12
2019-05-13T05:47:55.678Z,103482.81
2019-05-13T05:51:02.105Z,103491.55
2019-05-13T05:54:11.987Z,103484.09
2019-05-13T05:57:14.068Z,103487.43
2019-05-13T06:00:18.100Z,103491.84
2019-05-13T06:03:24.233Z,103492.73
2019-05-13T06:06:32.732Z,103492.42
2019-05-13T06:09:35.103Z,103489.86
2019-05-13T06:12:42.157Z,103487.46
2019-05-13T06:15:45.132Z,103488.73
2019-05-13T06:18:48.814Z,103484.94
2019-05-13T06:21:52.958Z,103493.38
2019-05-13T06:24:56.699Z,103495.34
2019-05-13T06:28:01.842Z,103493.63
2019-05-13T06:31:05.784Z,103492.02
2019-05-13T06:34:12.434Z,103496.55
2019-05-13T06:37:15.670Z,103499.92
2019-05-13T06:40:21.442Z,103497.56
2019-05-13T06:43:24.767Z,103502.88
2019-05-13T06:46:28.453Z,103502.08
2019-05-13T06:49:32.670Z,103499.51
2019-05-13T06:52:36.406Z,103506.13
2019-05-13T06:55:41.803Z,103502.30
2019-05-13T06:58:45.635Z,103508.45
2019-05-13T07:01:51.399Z,103516.96
2019-05-13T07:04:55.047Z,103517.40
2019-05-13T07:07:58.733Z,103513.86
2019-05-13T07:11:17.273Z,103509.92
2019-05-13T07:14:08.157Z,103516.11
2019-05-13T07:17:12.500Z,103516.22
2019-05-13T07:20:17.900Z,103508.73
2019-05-13T07:23:22.437Z,103518.58
2019-05-13T07:26:26.335Z,103517.69
2019-05-13T07:29:32.200Z,103508.02
2019-05-13T07:32:35.419Z,103512.03
2019-05-13T07:35:44.500Z,103509.78
2019-05-13T07:38:45.717Z,103512.45
2019-05-13T07:41:51.917Z,103519.56
2019-05-13T07:44:55.147Z,103517.80
2019-05-13T07:48:01.263Z,103516.92
2019-05-13T07:51:05.021Z,103516.48
2019-05-13T07:54:11.240Z,103521.34
2019-05-13T07:57:14.431Z,103519.59
2019-05-13T08:00:18.785Z,103521.34
2019-05-13T08:03:22.499Z,103522.26
2019-05-13T08:06:26.299Z,103524.87
2019-05-13T08:09:31.970Z,103517.34
2019-05-13T08:12:35.464Z,103522.64
2019-05-13T08:15:41.825Z,103518.64
2019-05-13T08:18:44.925Z,103528.83
2019-05-13T08:21:48.631Z,103518.64
2019-05-13T08:24:54.393Z,103523.88
2019-05-13T08:27:57.842Z,103515.86
2019-05-13T08:31:02.182Z,103517.48
2019-05-13T08:34:06.117Z,103512.06
2019-05-13T08:37:11.379Z,103511.56
2019-05-13T08:40:19.967Z,103506.24
2019-05-13T08:43:22.623Z,103505.77
2019-05-13T08:46:26.660Z,103514.72
2019-05-13T08:49:32.590Z,103511.55
2019-05-13T08:52:35.797Z,103501.63
2019-05-13T08:55:39.491Z,103505.48
2019-05-13T08:58:45.032Z,103501.70
2019-05-13T09:01:48.758Z,103499.25
2019-05-13T09:04:52.811Z,103496.91
2019-05-13T09:07:56.581Z,103506.61
2019-05-13T09:11:01.624Z,103505.77
2019-05-13T09:14:05.817Z,103506.41
2019-05-13T09:17:11.889Z,103513.30
2019-05-13T09:20:15.247Z,103518.88
2019-05-13T09:23:18.961Z,103503.02
2019-05-13T09:26:22.770Z,103509.91
2019-05-13T09:29:26.461Z,103497.72
2019-05-13T09:32:31.814Z,103499.59
2019-05-13T09:35:35.683Z,103497.03
2019-05-13T09:38:41.811Z,103511.33
2019-05-13T09:41:44.903Z,103502.17
2019-05-13T09:44:48.623Z,103504.02
2019-05-13T09:47:52.658Z,103498.67
2019-05-13T09:50:56.320Z,103496.74
2019-05-13T09:54:01.357Z,103501.05
2019-05-13T09:57:05.206Z,103499.13
2019-05-13T10:00:12.013Z,103495.04
2019-05-13T10:03:15.522Z,103492.86
2019-05-13T10:06:21.869Z,103498.25
2019-05-13T10:09:24.757Z,103495.73
2019-05-13T10:12:28.480Z,103501.59
2019-05-13T10:15:32.767Z,103492.27
2019-05-13T10:18:36.626Z,103486.16
2019-05-13T10:21:42.074Z,103492.22
2019-05-13T10:24:46.171Z,103479.50
2019-05-13T10:27:50.060Z,103483.19
2019-05-13T10:30:54.491Z,103476.31
2019-05-13T10:33:59.028Z,103480.30
2019-05-13T10:37:03.103Z,103474.17
2019-05-13T10:40:07.164Z,103481.17
2019-05-13T10:43:27.121Z,103476.02
2019-05-13T10:46:16.494Z,103475.61
2019-05-13T10:49:22.106Z,103468.84
2019-05-13T10:52:25.741Z,103467.50
2019-05-13T10:55:31.736Z,103465.88
2019-05-13T10:58:35.863Z,103477.94
2019-05-13T11:01:42.622Z,103468.06
2019-05-13T11:04:45.429Z,103470.94
2019-05-13T11:07:51.682Z,103462.11
2019-05-13T11:10:55.331Z,103464.42
2019-05-13T11:14:08.271Z,103461.12
2019-05-13T11:17:05.090Z,103461.99
2019-05-13T11:20:09.034Z,103453.06
2019-05-13T11:23:12.823Z,103464.08
2019-05-13T11:26:16.851Z,103464.30
2019-05-13T11:29:23.074Z,103460.33
2019-05-13T11:32:25.994Z,103456.03
2019-05-13T11:35:31.961Z,103452.15
2019-05-13T11:38:35.435Z,103448.67
2019-05-13T11:41:42.461Z,103458.19
2019-05-13T11:44:44.578Z,103436.97
2019-05-13T11:47:48.288Z,103443.33
2019-05-13T11:50:54.070Z,103442.44
2019-05-13T11:53:57.805Z,103439.59
2019-05-13T11:57:06.120Z,103437.98
2019-05-13T12:00:12.885Z,103436.43
2019-05-13T12:03:14.979Z,103426.09
2019-05-13T12:06:22.897Z,103422.38
2019-05-13T12:09:24.386Z,103428.88
2019-05-13T12:12:33.663Z,103415.27
2019-05-13T12:15:45.942Z,103415.05
2019-05-13T12:18:43.403Z,103407.52
2019-05-13T12:21:46.694Z,103412.46
2019-05-13T12:24:51.556Z,103417.97
2019-05-13T12:27:55.321Z,103406.63
2019-05-13T12:31:02.979Z,103405.92
2019-05-13T12:34:04.942Z,103398.89
2019-05-13T12:37:08.993Z,103393.55
2019-05-13T12:40:13.223Z,103400.01
2019-05-13T12:43:16.936Z,103395.80
2019-05-13T12:46:23.660Z,103386.96
2019-05-13T12:52:32.553Z,103387.64
2019-05-13T12:55:36.615Z,103378.30
2019-05-13T12:58:40.311Z,103379.66
2019-05-13T13:01:44.009Z,103379.77
2019-05-13T13:05:10.960Z,103375.88
2019-05-13T13:08:16.006Z,103367.88
2019-05-13T13:10:58.603Z,103363.45
2019-05-13T13:14:05.772Z,103360.82
2019-05-13T13:17:07.717Z,103362.22
2019-05-13T13:20:14.901Z,103354.03
2019-05-13T13:23:17.091Z,103343.12
2019-05-13T13:26:21.807Z,103352.81
2019-05-13T13:29:25.741Z,103344.28
2019-05-13T13:32:32.218Z,103340.88
2019-05-13T13:35:35.004Z,103344.54
2019-05-13T13:38:42.690Z,103331.34
2019-05-13T13:41:45.296Z,103337.53
2019-05-13T13:44:53.465Z,103341.35
2019-05-13T13:48:03.094Z,103337.94
2019-05-13T13:51:04.016Z,103329.78
2019-05-13T13:54:05.351Z,103338.89
2019-05-13T13:57:13.133Z,103328.11
2019-05-13T14:00:31.722Z,103325.68
2019-05-13T14:03:20.762Z,103329.50
2019-05-13T14:06:33.329Z,103381.77
2019-05-13T14:07:22.865Z,103330.77
2019-05-13T14:09:29.896Z,103311.00
2019-05-13T14:12:33.598Z,103316.86
2019-05-13T14:15:37.292Z,103314.64
2019-05-13T14:18:41.959Z,103316.01
2019-05-13T14:21:45.954Z,103312.91
2019-05-13T14:24:51.869Z,103312.06
2019-05-13T14:27:55.089Z,103305.80
2019-05-13T14:30:58.775Z,103310.44
2019-05-13T14:34:03.711Z,103305.47
2019-05-13T14:37:08.106Z,103302.60
2019-05-13T14:40:13.219Z,103295.98
2019-05-13T14:43:16.930Z,103301.45
2019-05-13T14:46:27.353Z,103293.59
2019-05-13T14:49:26.551Z,103305.84
2019-05-13T14:52:32.336Z,103306.66
2019-05-13T14:55:35.675Z,103284.37
2019-05-13T14:58:41.869Z,103286.12
2019-05-13T15:01:45.110Z,103300.45
2019-05-13T15:04:48.821Z,103301.32
2019-05-13T15:07:52.979Z,103294.16
2019-05-13T15:10:56.733Z,103295.80
2019-05-13T15:14:02.402Z,103287.66
2019-05-13T15:17:07.555Z,103280.70
2019-05-13T15:20:12.725Z,103282.20
2019-05-13T15:23:16.430Z,103281.72
2019-05-13T15:26:22.213Z,103281.65
2019-05-13T15:29:25.592Z,103287.06
2019-05-13T15:32:29.297Z,103287.61
2019-05-13T15:35:33.011Z,103290.75
2019-05-13T15:38:36.713Z,103295.45
2019-05-13T15:41:41.784Z,103291.23
2019-05-13T15:44:46.041Z,103276.85
2019-05-13T15:47:51.611Z,103284.09
2019-05-13T15:50:55.186Z,103278.14
2019-05-13T15:54:02.241Z,103283.72
2019-05-13T15:57:04.739Z,103274.79
2019-05-13T16:00:08.905Z,103279.06
2019-05-13T16:03:12.904Z,103279.41
2019-05-13T16:06:16.979Z,103271.10
2019-05-13T16:09:20.681Z,103277.83
2019-05-13T16:12:24.371Z,103279.41
2019-05-13T16:15:28.694Z,103272.34
2019-05-13T16:18:32.415Z,103272.66
2019-05-13T16:21:36.123Z,103278.93
2019-05-13T16:24:41.489Z,103265.27
2019-05-13T16:27:45.731Z,103261.55
2019-05-13T16:30:51.620Z,103265.98
2019-05-13T16:33:55.222Z,103271.66
2019-05-13T16:36:58.910Z,103270.45
2019-05-13T16:40:02.624Z,103282.77
2019-05-13T16:43:06.323Z,103277.30
2019-05-13T16:46:12.174Z,103282.03
2019-05-13T16:49:15.767Z,103276.06
2019-05-13T16:52:21.887Z,103274.17
2019-05-13T16:55:25.675Z,103277.56
2019-05-13T16:58:32.169Z,103276.97
2019-05-13T17:01:35.423Z,103290.84
2019-05-13T17:04:41.318Z,103277.87
2019-05-13T17:07:44.566Z,103281.27
2019-05-13T17:10:48.265Z,103269.41
2019-05-13T17:13:51.979Z,103274.98
2019-05-13T17:16:56.336Z,103277.34
2019-05-13T17:20:02.221Z,103276.72
2019-05-13T17:23:05.471Z,103285.15
2019-05-13T17:26:11.455Z,103282.41
2019-05-13T17:29:14.893Z,103274.47
2019-05-13T17:32:18.604Z,103278.36
2019-05-13T17:35:22.442Z,103293.83
2019-05-13T17:38:26.145Z,103281.88
2019-05-13T17:41:31.928Z,103281.56
2019-05-13T17:44:35.592Z,103290.25
2019-05-13T17:47:41.736Z,103287.67
2019-05-13T17:50:45.305Z,103285.80
2019-05-13T17:53:49.008Z,103290.28
2019-05-13T17:56:52.710Z,103286.38
2019-05-13T17:59:56.411Z,103288.34
2019-05-13T18:03:01.916Z,103293.83
2019-05-13T18:06:05.774Z,103294.95
2019-05-13T18:09:11.747Z,103288.28
2019-05-13T18:12:15.159Z,103295.38
2019-05-13T18:15:18.926Z,103284.00
2019-05-13T18:18:22.621Z,103282.40
2019-05-13T18:21:26.312Z,103279.73
2019-05-13T18:24:32.077Z,103290.40
2019-05-13T18:27:35.547Z,103295.50
2019-05-13T18:30:41.030Z,103302.83
2019-05-13T18:33:44.852Z,103298.75
2019-05-13T18:36:48.541Z,103294.87
2019-05-13T18:39:52.592Z,103306.62
2019-05-13T18:42:56.284Z,103301.37
2019-05-13T18:46:02.030Z,103302.09
2019-05-13T18:49:05.446Z,103313.11
2019-05-13T18:52:11.648Z,103308.72
2019-05-13T18:55:15.252Z,103319.19
2019-05-13T18:58:19.255Z,103311.61
2019-05-13T19:01:42.669Z,103322.28
2019-05-13T19:05:03.683Z,103323.97
2019-05-13T19:08:29.107Z,103323.27
2019-05-13T19:11:44.945Z,103319.73
2019-05-13T19:15:02.553Z,103326.91
2019-05-13T19:18:15.929Z,103326.52
2019-05-13T19:21:34.427Z,103334.98
2019-05-13T19:25:02.624Z,103329.71
2019-05-13T19:28:06.606Z,103340.45
2019-05-13T19:31:11.558Z,103343.07
2019-05-13T19:34:15.304Z,103345.82
2019-05-13T19:37:18.992Z,103350.62
2019-05-13T19:40:22.698Z,103352.86
2019-05-13T19:43:26.391Z,103353.31
2019-05-13T19:46:31.459Z,103352.55
2019-05-13T19:49:37.261Z,103352.96
2019-05-13T19:52:41.467Z,103358.30
2019-05-13T19:55:45.298Z,103360.14
2019-05-13T19:58:48.980Z,103363.69
2019-05-13T20:01:52.683Z,103361.02
2019-05-13T20:04:56.452Z,103373.44
2019-05-13T20:08:00.775Z,103371.67
2019-05-13T20:11:04.708Z,103369.88
2019-05-13T20:14:08.408Z,103372.56
2019-05-13T20:17:12.323Z,103373.42
2019-05-13T20:20:16.707Z,103374.38
2019-05-13T20:23:21.337Z,103370.81
2019-05-13T20:26:25.318Z,103371.70
2019-05-13T20:29:29.289Z,103368.17
2019-05-13T20:32:33.008Z,103369.96
2019-05-13T20:35:36.709Z,103364.63
2019-05-13T20:38:40.406Z,103359.34
2019-05-13T20:41:44.118Z,103361.99
2019-05-13T20:44:48.133Z,103357.98
2019-05-13T20:47:51.923Z,103360.22
2019-05-13T20:50:55.795Z,103364.21
2019-05-13T20:53:59.507Z,103365.50
2019-05-13T20:57:03.213Z,103362.41
2019-05-13T21:00:07.473Z,103368.59
2019-05-13T21:03:11.745Z,103369.86
2019-05-13T21:06:15.648Z,103374.75
2019-05-13T21:09:19.355Z,103373.81
2019-05-13T21:12:23.041Z,103367.66
2019-05-13T21:15:26.851Z,103367.16
2019-05-13T21:18:31.629Z,103377.70
2019-05-13T21:21:35.807Z,103373.26
2019-05-13T21:24:41.257Z,103368.86
2019-05-13T21:27:45.430Z,103365.35
2019-05-13T21:30:51.284Z,103374.95
2019-05-13T21:33:54.534Z,103368.35
2019-05-13T21:36:58.511Z,103361.25
2019-05-13T21:40:02.208Z,103366.05
2019-05-13T21:43:05.899Z,103365.55
2019-05-13T21:46:11.890Z,103368.53
2019-05-13T21:49:17.419Z,103367.72
2019-05-13T21:52:23.540Z,103360.62
2019-05-13T21:55:26.211Z,103360.06
2019-05-13T21:58:31.243Z,103359.14
2019-05-13T22:01:35.614Z,103359.14
2019-05-13T22:04:41.260Z,103356.09
2019-05-13T22:07:44.866Z,103349.47
2019-05-13T22:10:48.574Z,103349.83
2019-05-13T22:13:52.602Z,103350.72
2019-05-13T22:16:56.584Z,103359.76
2019-05-13T22:20:01.846Z,103358.37
2019-05-13T22:23:06.051Z,103351.72
2019-05-13T22:26:11.704Z,103357.44
2019-05-13T22:29:15.183Z,103351.13
2019-05-13T22:32:18.882Z,103351.63
2019-05-13T22:35:22.575Z,103343.02
2019-05-13T22:38:26.275Z,103349.97
2019-05-13T22:41:31.296Z,103348.95
2019-05-13T22:44:35.411Z,103351.09
2019-05-13T22:47:41.524Z,103350.09
2019-05-13T22:50:44.488Z,103353.09
2019-05-13T22:53:48.172Z,103343.34
2019-05-13T22:56:52.336Z,103350.74
2019-05-13T22:59:56.131Z,103350.74
2019-05-13T23:03:01.642Z,103357.25
2019-05-13T23:06:05.278Z,103355.42
2019-05-13T23:09:08.976Z,103347.42
2019-05-13T23:12:12.650Z,103347.88
2019-05-13T23:15:16.950Z,103347.20
2019-05-13T23:18:22.232Z,103348.97
2019-05-13T23:21:25.963Z,103343.61
2019-05-13T23:24:31.133Z,103344.49
2019-05-13T23:27:35.115Z,103342.27
2019-05-13T23:30:38.808Z,103341.85
2019-05-13T23:33:42.479Z,103341.23
2019-05-13T23:36:46.515Z,103338.94
2019-05-13T23:39:52.018Z,103340.52
2019-05-13T23:42:55.601Z,103343.23
2019-05-13T23:46:01.182Z,103343.97
2019-05-13T23:49:04.701Z,103338.15
2019-05-13T23:52:08.421Z,103337.38
2019-05-13T23:55:12.349Z,103347.80
2019-05-13T23:58:16.330Z,103346.74
